Terminal Aerodrome Forecast
Issued by NWS New Orleans/Baton Rouge, LA

Home | Current Version | Previous Version | Text Only | Print | Product List | Glossary On
Versions: 1 2 3 4 5 6 7 8 9 10 11 12
000
FTUS44 KLIX 022300
TAFBTR
TAF
KBTR 022340Z 0300/0324 VRB03KT P6SM SCT035 BKN050
     FM030100 00000KT P6SM BKN130
     FM031400 10005KT P6SM FEW040 BKN110
      TEMPO 0319/0323 17020G30KT 1SM +TSRA BKN035CB=

USA.gov is the U.S. government's official web portal to all federal, state and local government web resources and services.